createdAt,value
2023-04-27T00:01:36.961Z,6.90
2023-04-27T00:04:07.471Z,6.90
2023-04-27T00:06:34.470Z,6.90
2023-04-27T00:09:01.947Z,6.90
2023-04-27T00:11:28.641Z,6.80
2023-04-27T00:13:56.074Z,6.80
2023-04-27T00:16:22.830Z,6.80
2023-04-27T00:18:49.583Z,6.70
2023-04-27T00:21:16.279Z,6.80
2023-04-27T00:23:42.951Z,6.70
2023-04-27T00:26:09.611Z,6.80
2023-04-27T00:28:38.833Z,6.90
2023-04-27T00:31:05.749Z,6.90
2023-04-27T00:33:32.466Z,6.80
2023-04-27T00:36:02.839Z,6.70
2023-04-27T00:38:30.145Z,6.60
2023-04-27T00:41:02.766Z,6.60
2023-04-27T00:43:29.735Z,6.60
2023-04-27T00:45:57.027Z,6.60
2023-04-27T00:48:24.878Z,6.70
2023-04-27T00:50:51.920Z,6.60
2023-04-27T00:53:19.004Z,6.60
2023-04-27T00:55:46.816Z,6.60
2023-04-27T00:58:13.507Z,6.60
2023-04-27T01:00:40.849Z,6.60
2023-04-27T01:03:08.231Z,6.60
2023-04-27T01:05:36.077Z,6.70
2023-04-27T01:08:03.186Z,6.70
2023-04-27T01:10:29.868Z,6.70
2023-04-27T01:12:57.495Z,6.70
2023-04-27T01:15:24.203Z,6.70
2023-04-27T01:17:58.142Z,6.80
2023-04-27T01:20:25.110Z,6.80
2023-04-27T01:22:53.235Z,6.80
2023-04-27T01:25:20.149Z,6.80
2023-04-27T01:27:46.846Z,6.90
2023-04-27T01:30:13.801Z,6.90
2023-04-27T01:32:40.530Z,7.00
2023-04-27T01:35:07.724Z,6.90
2023-04-27T01:37:35.041Z,6.90
2023-04-27T01:40:01.866Z,6.90
2023-04-27T01:42:28.957Z,7.00
2023-04-27T01:44:55.628Z,7.00
2023-04-27T01:47:22.333Z,7.00
2023-04-27T01:49:48.994Z,7.00
2023-04-27T01:52:15.762Z,7.10
2023-04-27T01:54:42.457Z,7.10
2023-04-27T01:57:09.823Z,7.10
2023-04-27T01:59:36.543Z,7.10
2023-04-27T02:02:04.142Z,7.00
2023-04-27T02:04:31.043Z,7.00
2023-04-27T02:06:58.179Z,7.00
2023-04-27T02:09:25.175Z,6.90
2023-04-27T02:11:51.877Z,6.90
2023-04-27T02:14:18.550Z,6.90
2023-04-27T02:16:47.220Z,6.80
2023-04-27T02:19:14.129Z,6.80
2023-04-27T02:21:41.461Z,6.80
2023-04-27T02:24:09.329Z,6.80
2023-04-27T02:26:36.144Z,6.80
2023-04-27T02:29:03.924Z,6.90
2023-04-27T02:31:31.343Z,6.90
2023-04-27T02:33:58.002Z,6.90
2023-04-27T02:36:25.335Z,6.90
2023-04-27T02:38:54.883Z,7.00
2023-04-27T02:41:21.582Z,6.90
2023-04-27T02:43:51.399Z,6.90
2023-04-27T02:46:18.122Z,6.90
2023-04-27T02:48:44.857Z,6.90
2023-04-27T02:51:11.553Z,6.90
2023-04-27T02:53:38.250Z,7.00
2023-04-27T02:56:05.255Z,6.90
2023-04-27T02:58:32.099Z,6.90
2023-04-27T03:00:58.821Z,6.90
2023-04-27T03:03:25.730Z,7.00
2023-04-27T03:05:52.575Z,7.00
2023-04-27T03:08:19.309Z,7.00
2023-04-27T03:10:46.047Z,7.10
2023-04-27T03:13:14.780Z,7.10
2023-04-27T03:15:43.726Z,7.10
2023-04-27T03:18:11.290Z,7.10
2023-04-27T03:20:38.055Z,7.10
2023-04-27T03:23:04.997Z,7.00
2023-04-27T03:25:31.793Z,6.90
2023-04-27T03:27:58.470Z,6.90
2023-04-27T03:30:25.147Z,6.80
2023-04-27T03:32:51.846Z,6.80
2023-04-27T03:35:18.748Z,6.80
2023-04-27T03:37:46.131Z,6.80
2023-04-27T03:40:14.452Z,6.80
2023-04-27T03:42:41.296Z,6.90
2023-04-27T03:45:08.896Z,6.90
2023-04-27T03:47:35.631Z,6.90
2023-04-27T03:50:02.316Z,6.90
2023-04-27T03:52:28.993Z,6.90
2023-04-27T03:54:55.684Z,6.90
2023-04-27T03:57:22.749Z,7.00
2023-04-27T03:59:49.988Z,6.90
2023-04-27T04:02:17.239Z,6.90
2023-04-27T04:04:44.405Z,6.90
2023-04-27T04:07:11.193Z,6.90
2023-04-27T04:09:38.122Z,6.90
2023-04-27T04:12:05.223Z,6.90
2023-04-27T04:14:57.276Z,6.90
2023-04-27T04:17:42.726Z,6.90
2023-04-27T04:20:10.778Z,6.90
2023-04-27T04:22:38.301Z,6.90
2023-04-27T04:25:06.358Z,6.90
2023-04-27T04:27:33.542Z,6.90
2023-04-27T04:30:00.601Z,6.90
2023-04-27T04:32:31.327Z,6.90
2023-04-27T04:34:59.059Z,6.90
2023-04-27T04:37:26.131Z,6.90
2023-04-27T04:39:52.976Z,7.00
2023-04-27T04:42:20.632Z,7.00
2023-04-27T04:44:47.523Z,7.00
2023-04-27T04:47:14.316Z,7.00
2023-04-27T04:49:41.016Z,7.00
2023-04-27T04:52:07.792Z,7.10
2023-04-27T04:54:34.447Z,7.10
2023-04-27T04:57:03.405Z,7.10
2023-04-27T04:59:34.207Z,7.10
2023-04-27T05:02:01.253Z,7.10
2023-04-27T05:04:28.748Z,7.20
2023-04-27T05:06:55.439Z,7.10
2023-04-27T05:09:22.625Z,7.20
2023-04-27T05:11:49.326Z,7.20
2023-04-27T05:14:16.200Z,7.30
2023-04-27T05:16:43.098Z,7.40
2023-04-27T05:19:09.903Z,7.40
2023-04-27T05:21:36.633Z,7.50
2023-04-27T05:24:04.037Z,7.50
2023-04-27T05:26:30.701Z,7.60
2023-04-27T05:32:25.671Z,7.50
2023-04-27T05:34:52.906Z,7.60
2023-04-27T05:37:19.622Z,7.60
2023-04-27T05:39:46.345Z,7.70
2023-04-27T05:42:13.167Z,7.70
2023-04-27T05:44:39.852Z,7.80
2023-04-27T05:47:06.567Z,7.80
2023-04-27T05:49:33.217Z,7.90
2023-04-27T05:52:00.731Z,8.00
2023-04-27T05:54:27.581Z,8.10
2023-04-27T05:56:54.403Z,8.20
2023-04-27T05:59:21.819Z,8.30
2023-04-27T06:01:48.515Z,8.30
2023-04-27T06:04:15.422Z,8.40
2023-04-27T06:06:42.446Z,8.50
2023-04-27T06:09:09.125Z,8.60
2023-04-27T06:11:35.757Z,8.60
2023-04-27T06:14:02.452Z,8.60
2023-04-27T06:16:29.223Z,8.60
2023-04-27T06:18:56.095Z,8.50
2023-04-27T06:21:22.757Z,8.40
2023-04-27T06:23:49.524Z,8.50
2023-04-27T06:26:16.429Z,8.60
2023-04-27T06:28:43.078Z,8.70
2023-04-27T06:31:09.744Z,8.60
2023-04-27T06:33:36.502Z,8.70
2023-04-27T06:36:03.321Z,8.80
2023-04-27T06:38:29.989Z,8.80
2023-04-27T06:40:56.982Z,9.00
2023-04-27T06:43:23.759Z,9.00
2023-04-27T06:45:50.586Z,9.10
2023-04-27T06:48:17.448Z,9.20
2023-04-27T06:50:44.311Z,9.20
2023-04-27T06:53:11.225Z,9.40
2023-04-27T06:55:38.034Z,9.50
2023-04-27T06:58:04.756Z,9.60
2023-04-27T07:00:31.888Z,9.80
2023-04-27T07:02:58.700Z,9.60
2023-04-27T07:05:26.001Z,9.80
2023-04-27T07:07:52.753Z,9.90
2023-04-27T07:10:19.675Z,9.80
2023-04-27T07:12:46.448Z,9.60
2023-04-27T07:15:13.346Z,9.80
2023-04-27T07:17:40.063Z,10.00
2023-04-27T07:20:08.557Z,10.20
2023-04-27T07:22:35.271Z,10.40
2023-04-27T07:25:02.058Z,10.50
2023-04-27T07:27:28.968Z,10.70
2023-04-27T07:29:55.618Z,10.80
2023-04-27T07:32:22.621Z,10.90
2023-04-27T07:34:54.016Z,10.90
2023-04-27T07:37:21.945Z,10.90
2023-04-27T07:39:50.324Z,10.90
2023-04-27T07:42:17.082Z,10.90
2023-04-27T07:44:44.113Z,11.00
2023-04-27T07:47:10.848Z,11.00
2023-04-27T07:49:38.216Z,11.10
2023-04-27T07:52:05.403Z,10.90
2023-04-27T07:54:32.136Z,11.00
2023-04-27T07:56:58.830Z,11.00
2023-04-27T07:59:28.927Z,11.10
2023-04-27T08:02:04.016Z,11.20
2023-04-27T08:04:34.197Z,11.30
2023-04-27T08:07:01.588Z,11.50
2023-04-27T08:09:29.038Z,11.60
2023-04-27T08:11:57.215Z,11.70
2023-04-27T08:14:23.907Z,11.80
2023-04-27T08:16:51.969Z,12.00
2023-04-27T08:19:18.698Z,12.00
2023-04-27T08:21:45.387Z,12.00
2023-04-27T08:24:12.400Z,12.00
2023-04-27T08:26:41.129Z,12.20
2023-04-27T08:29:19.448Z,12.40
2023-04-27T08:31:55.663Z,12.40
2023-04-27T08:34:23.252Z,12.30
2023-04-27T08:36:49.984Z,12.30
2023-04-27T08:39:18.009Z,12.40
2023-04-27T08:41:44.773Z,12.50
2023-04-27T08:44:11.707Z,12.50
2023-04-27T08:46:39.144Z,12.70
2023-04-27T08:49:07.384Z,12.60
2023-04-27T08:51:34.215Z,12.40
2023-04-27T08:54:01.315Z,12.30
2023-04-27T08:56:29.178Z,12.30
2023-04-27T08:58:57.278Z,12.10
2023-04-27T09:01:25.411Z,12.10
2023-04-27T09:04:00.050Z,12.20
2023-04-27T09:06:34.624Z,12.40
2023-04-27T09:09:02.399Z,12.60
2023-04-27T09:11:33.966Z,12.60
2023-04-27T09:14:03.237Z,12.80
2023-04-27T09:16:31.203Z,12.90
2023-04-27T09:18:58.537Z,13.10
2023-04-27T09:21:29.256Z,13.20
2023-04-27T09:23:56.659Z,13.40
2023-04-27T09:26:26.826Z,13.70
2023-04-27T09:28:57.404Z,13.60
2023-04-27T09:31:35.109Z,13.70
2023-04-27T09:34:02.865Z,13.80
2023-04-27T09:36:30.972Z,13.80
2023-04-27T09:38:58.794Z,14.00
2023-04-27T09:41:25.930Z,14.00
2023-04-27T09:43:55.719Z,14.10
2023-04-27T09:46:24.355Z,14.30
2023-04-27T09:48:52.179Z,14.50
2023-04-27T09:51:18.861Z,14.60
2023-04-27T09:53:51.617Z,14.20
2023-04-27T09:56:56.316Z,14.10
2023-04-27T09:59:34.409Z,14.10
2023-04-27T10:02:17.057Z,13.80
2023-04-27T10:04:53.445Z,14.00
2023-04-27T10:07:20.687Z,13.90
2023-04-27T10:09:49.227Z,14.10
2023-04-27T10:12:22.818Z,14.40
2023-04-27T10:14:57.658Z,14.40
2023-04-27T10:17:31.491Z,14.10
2023-04-27T10:20:00.944Z,13.80
2023-04-27T10:22:47.819Z,13.60
2023-04-27T10:25:18.608Z,13.80
2023-04-27T10:27:57.821Z,14.10
2023-04-27T10:30:27.110Z,14.20
2023-04-27T10:32:59.149Z,14.60
2023-04-27T10:35:34.524Z,14.80
2023-04-27T10:38:17.605Z,14.80
2023-04-27T10:40:46.072Z,14.90
2023-04-27T10:43:17.728Z,15.10
2023-04-27T10:45:44.972Z,14.70
2023-04-27T10:48:17.723Z,14.50
2023-04-27T10:50:45.004Z,14.60
2023-04-27T10:53:11.669Z,14.30
2023-04-27T10:55:38.565Z,14.10
2023-04-27T10:58:05.462Z,13.80
2023-04-27T11:00:33.264Z,13.90
2023-04-27T11:03:18.309Z,14.10
2023-04-27T11:05:47.922Z,14.30
2023-04-27T11:08:17.269Z,14.30
2023-04-27T11:10:50.666Z,14.30
2023-04-27T11:13:22.745Z,14.70
2023-04-27T11:15:55.519Z,14.60
2023-04-27T11:18:24.864Z,15.10
2023-04-27T11:20:53.956Z,15.30
2023-04-27T11:23:28.926Z,15.30
2023-04-27T11:25:56.599Z,15.50
2023-04-27T11:28:24.382Z,15.60
2023-04-27T11:31:00.884Z,15.80
2023-04-27T11:33:28.182Z,15.50
2023-04-27T11:35:56.296Z,15.70
2023-04-27T11:38:23.450Z,15.60
2023-04-27T11:41:00.770Z,15.10
2023-04-27T11:43:28.061Z,15.50
2023-04-27T11:45:55.348Z,15.60
2023-04-27T11:48:27.121Z,16.00
2023-04-27T11:50:53.783Z,16.00
2023-04-27T11:53:37.893Z,16.30
2023-04-27T11:56:07.837Z,16.40
2023-04-27T11:58:36.198Z,16.60
2023-04-27T12:01:04.426Z,16.30
2023-04-27T12:03:31.855Z,16.50
2023-04-27T12:06:11.697Z,16.50
2023-04-27T12:08:43.202Z,16.50
2023-04-27T12:11:09.988Z,16.40
2023-04-27T12:13:36.704Z,16.40
2023-04-27T12:16:03.457Z,16.50
2023-04-27T12:18:30.121Z,16.00
2023-04-27T12:20:58.134Z,15.70
2023-04-27T12:23:28.234Z,15.80
2023-04-27T12:25:54.868Z,16.00
2023-04-27T12:28:21.530Z,16.10
2023-04-27T12:30:49.664Z,16.30
2023-04-27T12:33:16.781Z,16.50
2023-04-27T12:35:43.465Z,16.80
2023-04-27T12:38:10.188Z,17.20
2023-04-27T12:40:37.402Z,17.30
2023-04-27T12:43:04.044Z,17.10
2023-04-27T12:45:31.033Z,16.90
2023-04-27T12:50:27.505Z,16.40
2023-04-27T12:52:54.525Z,16.30
2023-04-27T12:55:32.038Z,16.30
2023-04-27T12:58:00.168Z,16.40
2023-04-27T13:00:27.615Z,16.60
2023-04-27T13:02:54.602Z,16.60
2023-04-27T13:05:22.314Z,16.50
2023-04-27T13:07:49.080Z,16.50
2023-04-27T13:10:15.969Z,16.50
2023-04-27T13:12:42.755Z,16.50
2023-04-27T13:15:10.017Z,16.40
2023-04-27T13:17:37.062Z,16.30
2023-04-27T13:20:04.168Z,16.10
2023-04-27T13:22:30.846Z,15.90
2023-04-27T13:24:57.949Z,15.60
2023-04-27T13:27:28.271Z,15.50
2023-04-27T13:29:55.147Z,15.40
2023-04-27T13:32:22.485Z,15.40
2023-04-27T13:34:49.361Z,15.50
2023-04-27T13:37:16.589Z,15.50
2023-04-27T13:39:43.236Z,15.60
2023-04-27T13:42:09.895Z,15.60
2023-04-27T13:44:36.533Z,15.50
2023-04-27T13:47:03.409Z,15.50
2023-04-27T13:49:30.306Z,15.70
2023-04-27T13:51:58.376Z,15.90
2023-04-27T13:54:25.075Z,15.90
2023-04-27T13:56:51.749Z,15.90
2023-04-27T13:59:18.473Z,15.70
2023-04-27T14:01:45.245Z,15.60
2023-04-27T14:04:12.023Z,15.60
2023-04-27T14:06:38.905Z,15.60
2023-04-27T14:09:05.715Z,15.50
2023-04-27T14:11:39.457Z,15.40
2023-04-27T14:14:11.997Z,15.30
2023-04-27T14:16:38.727Z,15.30
2023-04-27T14:19:05.555Z,15.40
2023-04-27T14:21:32.265Z,15.60
2023-04-27T14:23:58.925Z,15.80
2023-04-27T14:26:25.600Z,16.00
2023-04-27T14:28:52.297Z,16.40
2023-04-27T14:31:18.963Z,16.50
2023-04-27T14:33:47.293Z,16.70
2023-04-27T14:36:13.936Z,16.90
2023-04-27T14:38:40.625Z,17.10
2023-04-27T14:41:08.577Z,17.60
2023-04-27T14:43:35.250Z,17.90
2023-04-27T14:46:12.407Z,18.10
2023-04-27T14:48:47.224Z,18.10
2023-04-27T14:51:14.763Z,18.10
2023-04-27T14:53:41.812Z,17.70
2023-04-27T14:56:08.555Z,17.60
2023-04-27T14:58:35.497Z,17.50
2023-04-27T15:01:02.283Z,17.50
2023-04-27T15:03:29.481Z,17.40
2023-04-27T15:05:56.213Z,17.40
2023-04-27T15:08:22.969Z,17.40
2023-04-27T15:10:49.675Z,17.30
2023-04-27T15:13:16.741Z,17.20
2023-04-27T15:15:46.669Z,17.30
2023-04-27T15:18:13.554Z,17.50
2023-04-27T15:20:41.010Z,17.60
2023-04-27T15:23:08.124Z,17.60
2023-04-27T15:25:34.896Z,17.70
2023-04-27T15:28:03.205Z,17.60
2023-04-27T15:30:29.918Z,17.50
2023-04-27T15:32:56.825Z,17.70
2023-04-27T15:35:23.509Z,18.00
2023-04-27T15:37:51.529Z,17.90
2023-04-27T15:40:18.309Z,18.00
2023-04-27T15:42:44.965Z,18.00
2023-04-27T15:45:11.707Z,18.10
2023-04-27T15:47:38.459Z,18.10
2023-04-27T15:50:05.922Z,18.10
2023-04-27T15:52:33.773Z,18.00
2023-04-27T15:55:04.587Z,18.00
2023-04-27T15:57:31.630Z,17.90
2023-04-27T15:59:58.306Z,17.90
2023-04-27T16:02:25.156Z,17.80
2023-04-27T16:04:55.904Z,18.00
2023-04-27T16:07:22.773Z,18.10
2023-04-27T16:09:49.593Z,18.20
2023-04-27T16:12:16.899Z,18.70
2023-04-27T16:14:43.559Z,19.10
2023-04-27T16:17:10.313Z,20.00
2023-04-27T16:19:36.971Z,21.00
2023-04-27T16:22:04.218Z,21.10
2023-04-27T16:24:31.356Z,20.80
2023-04-27T16:26:58.106Z,20.10
2023-04-27T16:29:24.777Z,19.40
2023-04-27T16:31:52.510Z,18.90
2023-04-27T16:34:19.253Z,18.70
2023-04-27T16:36:48.357Z,19.10
2023-04-27T16:39:15.763Z,19.20
2023-04-27T16:41:42.783Z,18.90
2023-04-27T16:44:09.437Z,18.40
2023-04-27T16:46:36.437Z,18.00
2023-04-27T16:49:03.865Z,17.60
2023-04-27T16:51:30.929Z,17.50
2023-04-27T16:53:58.245Z,18.50
2023-04-27T16:56:29.532Z,18.70
2023-04-27T16:58:56.434Z,18.30
2023-04-27T17:01:25.991Z,17.70
2023-04-27T17:03:53.280Z,17.20
2023-04-27T17:06:20.076Z,16.90
2023-04-27T17:08:46.707Z,16.50
2023-04-27T17:11:14.464Z,16.30
2023-04-27T17:13:41.158Z,16.00
2023-04-27T17:16:11.611Z,15.70
2023-04-27T17:18:38.813Z,15.60
2023-04-27T17:21:05.599Z,15.50
2023-04-27T17:23:33.807Z,15.40
2023-04-27T17:26:00.650Z,15.40
2023-04-27T17:28:27.614Z,15.30
2023-04-27T17:30:54.282Z,15.30
2023-04-27T17:33:20.964Z,15.20
2023-04-27T17:35:47.725Z,15.10
2023-04-27T17:38:15.016Z,15.00
2023-04-27T17:40:42.266Z,14.80
2023-04-27T17:43:09.782Z,14.80
2023-04-27T17:45:36.528Z,14.50
2023-04-27T17:48:03.723Z,14.50
2023-04-27T17:50:30.842Z,14.30
2023-04-27T17:52:57.996Z,14.30
2023-04-27T17:55:24.712Z,14.10
2023-04-27T17:57:51.527Z,14.00
2023-04-27T18:00:18.567Z,13.80
2023-04-27T18:02:48.108Z,13.70
2023-04-27T18:05:16.028Z,13.60
2023-04-27T18:07:42.786Z,13.40
2023-04-27T18:10:09.682Z,13.30
2023-04-27T18:12:36.488Z,13.10
2023-04-27T18:15:05.562Z,13.00
2023-04-27T18:17:33.724Z,12.90
2023-04-27T18:20:08.695Z,12.80
2023-04-27T18:22:39.286Z,12.70
2023-04-27T18:25:06.666Z,12.60
2023-04-27T18:27:33.251Z,12.50
2023-04-27T18:29:59.994Z,12.30
2023-04-27T18:32:26.672Z,12.30
2023-04-27T18:34:53.881Z,12.20
2023-04-27T18:37:20.579Z,12.20
2023-04-27T18:39:47.292Z,12.10
2023-04-27T18:42:13.954Z,12.10
2023-04-27T18:44:40.605Z,12.10
2023-04-27T18:47:07.850Z,12.10
2023-04-27T18:49:34.600Z,12.10
2023-04-27T18:52:01.494Z,12.00
2023-04-27T18:54:28.194Z,11.90
2023-04-27T18:56:54.944Z,11.90
2023-04-27T18:59:21.618Z,11.80
2023-04-27T19:01:48.425Z,11.70
2023-04-27T19:04:16.410Z,11.60
2023-04-27T19:06:43.240Z,11.60
2023-04-27T19:09:10.042Z,11.60
2023-04-27T19:11:36.751Z,11.50
2023-04-27T19:14:03.448Z,11.70
2023-04-27T19:16:30.312Z,11.40
2023-04-27T19:18:57.080Z,11.20
2023-04-27T19:21:23.831Z,11.20
2023-04-27T19:23:50.607Z,11.20
2023-04-27T19:26:17.285Z,11.20
2023-04-27T19:28:44.045Z,11.00
2023-04-27T19:31:10.774Z,11.10
2023-04-27T19:33:37.501Z,10.90
2023-04-27T19:36:04.526Z,10.90
2023-04-27T19:38:31.278Z,10.80
2023-04-27T19:40:58.007Z,10.80
2023-04-27T19:43:24.772Z,10.70
2023-04-27T19:45:51.640Z,10.70
2023-04-27T19:48:18.413Z,10.70
2023-04-27T19:50:45.088Z,10.70
2023-04-27T19:53:11.829Z,10.60
2023-04-27T19:55:40.094Z,10.50
2023-04-27T19:58:06.811Z,10.60
2023-04-27T20:00:33.578Z,10.50
2023-04-27T20:03:00.450Z,10.40
2023-04-27T20:05:27.744Z,10.30
2023-04-27T20:07:54.481Z,10.30
2023-04-27T20:10:21.495Z,11.00
2023-04-27T20:12:56.810Z,10.10
2023-04-27T20:15:24.619Z,10.10
2023-04-27T20:17:51.752Z,10.00
2023-04-27T20:20:19.197Z,10.00
2023-04-27T20:22:45.959Z,10.00
2023-04-27T20:25:14.640Z,10.00
2023-04-27T20:27:41.709Z,9.90
2023-04-27T20:30:09.096Z,10.00
2023-04-27T20:32:36.245Z,9.90
2023-04-27T20:35:04.630Z,9.90
2023-04-27T20:37:32.366Z,9.80
2023-04-27T20:39:59.309Z,9.80
2023-04-27T20:42:26.067Z,9.70
2023-04-27T20:44:54.875Z,9.60
2023-04-27T20:47:21.885Z,9.60
2023-04-27T20:49:48.808Z,9.60
2023-04-27T20:52:15.735Z,9.50
2023-04-27T20:54:42.461Z,9.50
2023-04-27T20:57:13.450Z,9.50
2023-04-27T20:59:41.034Z,9.50
2023-04-27T21:02:07.802Z,9.40
2023-04-27T21:04:34.597Z,9.40
2023-04-27T21:07:01.424Z,9.40
2023-04-27T21:09:28.189Z,9.30
2023-04-27T21:11:54.975Z,9.30
2023-04-27T21:14:21.714Z,9.20
2023-04-27T21:16:48.405Z,9.20
2023-04-27T21:19:16.532Z,9.20
2023-04-27T21:21:43.514Z,9.20
2023-04-27T21:24:10.458Z,9.20
2023-04-27T21:26:37.143Z,9.20
2023-04-27T21:29:05.774Z,9.20
2023-04-27T21:31:33.796Z,9.10
2023-04-27T21:34:01.571Z,9.10
2023-04-27T21:36:28.263Z,9.10
2023-04-27T21:38:55.102Z,9.10
2023-04-27T21:41:21.875Z,9.00
2023-04-27T21:43:48.534Z,9.00
2023-04-27T21:46:15.248Z,9.00
2023-04-27T21:48:42.003Z,8.90
2023-04-27T21:51:08.666Z,8.80
2023-04-27T21:53:35.316Z,8.80
2023-04-27T21:56:02.019Z,8.90
2023-04-27T21:58:28.878Z,8.90
2023-04-27T22:00:55.575Z,8.80
2023-04-27T22:03:22.866Z,8.80
2023-04-27T22:05:50.243Z,8.80
2023-04-27T22:08:17.380Z,8.80
2023-04-27T22:10:45.071Z,8.80
2023-04-27T22:13:18.969Z,8.80
2023-04-27T22:15:47.331Z,8.80
2023-04-27T22:18:15.592Z,8.70
2023-04-27T22:20:43.436Z,8.70
2023-04-27T22:23:10.278Z,8.60
2023-04-27T22:25:37.036Z,8.50
2023-04-27T22:28:03.942Z,8.40
2023-04-27T22:30:30.995Z,8.40
2023-04-27T22:32:57.877Z,8.30
2023-04-27T22:35:27.556Z,8.30
2023-04-27T22:37:58.809Z,8.30
2023-04-27T22:40:26.172Z,8.30
2023-04-27T22:42:53.244Z,8.30
2023-04-27T22:45:19.958Z,8.30
2023-04-27T22:47:46.682Z,8.30
2023-04-27T22:50:13.657Z,8.30
2023-04-27T22:52:42.840Z,8.30
2023-04-27T22:55:10.955Z,8.30
2023-04-27T22:57:38.442Z,8.30
2023-04-27T23:00:05.949Z,8.40
2023-04-27T23:02:32.830Z,8.40
2023-04-27T23:04:59.705Z,8.50
2023-04-27T23:07:26.413Z,8.50
2023-04-27T23:09:54.772Z,8.60
2023-04-27T23:12:22.022Z,8.60
2023-04-27T23:14:48.734Z,8.50
2023-04-27T23:17:16.038Z,8.50
2023-04-27T23:19:42.649Z,8.50
2023-04-27T23:22:09.310Z,8.40
2023-04-27T23:24:36.057Z,8.40
2023-04-27T23:27:02.717Z,8.40
2023-04-27T23:29:30.751Z,8.40
2023-04-27T23:32:04.219Z,8.40
2023-04-27T23:34:32.342Z,8.40
2023-04-27T23:36:59.652Z,8.40
2023-04-27T23:39:27.256Z,8.40
2023-04-27T23:41:54.090Z,8.40
2023-04-27T23:44:21.369Z,8.50
2023-04-27T23:46:47.985Z,8.50
2023-04-27T23:49:15.293Z,8.50
2023-04-27T23:51:41.880Z,8.50
2023-04-27T23:54:08.579Z,8.50
2023-04-27T23:56:35.375Z,8.50
2023-04-27T23:59:02.071Z,8.40
